Time;durP1;ratioP1;P1;durP2;ratioP2;P2;SDS_P1;SDS_P2;PMS_P1;PMS_P2;Temp;Humidity;BMP_temperature;BMP_pressure;BME280_temperature;BME280_humidity;BME280_pressure;Samples;Min_cycle;Max_cycle;Signal;HPM_P1;HPM_P2
2022/01/04 05:03:37;;;;;;;24.20;14.35;;;;;;;5.90;100.00;99762.50;6676113;26;19989;-80
2022/01/04 05:06:40;;;;;;;21.08;13.23;;;;;;;5.85;100.00;99749.66;6689439;26;33951;-80
2022/01/04 05:09:42;;;;;;;22.05;13.23;;;;;;;5.89;100.00;99753.66;6689996;26;33549;-80
2022/01/04 05:12:45;;;;;;;23.95;13.73;;;;;;;5.89;100.00;99758.19;6693214;26;34580;-80
2022/01/04 05:15:48;;;;;;;20.77;13.18;;;;;;;5.95;100.00;99744.19;6695701;26;34317;-80
2022/01/04 05:18:51;;;;;;;23.20;13.62;;;;;;;5.87;100.00;99742.31;6690968;26;34328;-80
2022/01/04 05:21:53;;;;;;;24.83;14.50;;;;;;;5.77;100.00;99746.97;6688366;26;33981;-80
2022/01/04 05:24:56;;;;;;;24.73;14.90;;;;;;;5.66;100.00;99741.91;6688560;26;33714;-79
2022/01/04 05:27:59;;;;;;;22.52;13.95;;;;;;;5.53;100.00;99739.72;6688009;26;34734;-80
2022/01/04 05:31:01;;;;;;;20.65;12.45;;;;;;;5.42;100.00;99746.16;6688414;26;34268;-80
2022/01/04 05:34:04;;;;;;;23.33;13.68;;;;;;;5.34;100.00;99739.94;6688239;26;34483;-80
2022/01/04 05:37:07;;;;;;;21.87;13.30;;;;;;;5.32;100.00;99734.75;6688296;26;34480;-80
2022/01/04 05:40:10;;;;;;;20.45;13.05;;;;;;;5.20;100.00;99736.03;6688784;26;34354;-80
2022/01/04 05:43:14;;;;;;;22.83;14.02;;;;;;;5.23;100.00;99735.72;6688196;26;34195;-80
2022/01/04 05:46:16;;;;;;;23.67;14.32;;;;;;;5.12;100.00;99731.53;6688450;26;33623;-80
2022/01/04 05:49:19;;;;;;;24.83;13.68;;;;;;;5.15;100.00;99722.38;6689487;26;33758;-79
2022/01/04 05:52:22;;;;;;;20.02;12.80;;;;;;;5.16;100.00;99718.69;6690925;26;33672;-80
2022/01/04 05:55:25;;;;;;;24.77;14.73;;;;;;;5.14;100.00;99715.34;6691762;26;33710;-80
2022/01/04 05:58:28;;;;;;;24.35;14.00;;;;;;;5.13;100.00;99703.81;6690179;26;34264;-80
2022/01/04 06:01:31;;;;;;;26.70;15.07;;;;;;;5.11;100.00;99700.47;6690544;26;34468;-81
2022/01/04 06:04:34;;;;;;;26.83;16.58;;;;;;;5.07;100.00;99698.31;6690264;26;33992;-81
2022/01/04 06:07:37;;;;;;;25.00;15.73;;;;;;;4.85;100.00;99697.00;6690975;26;34615;-81
2022/01/04 06:10:40;;;;;;;25.12;15.90;;;;;;;4.72;100.00;99700.94;6689268;26;34458;-81
2022/01/04 06:17:07;;;;;;;25.30;16.20;;;;;;;4.42;100.00;99696.91;6700600;26;34095;-86
2022/01/04 06:20:14;;;;;;;31.60;16.50;;;;;;;4.34;100.00;99699.50;6703373;26;35147;-82
2022/01/04 06:23:17;;;;;;;26.77;15.55;;;;;;;4.32;100.00;99704.97;6698071;26;34260;-82
2022/01/04 06:26:20;;;;;;;29.10;17.02;;;;;;;4.27;100.00;99704.59;6688576;26;34128;-82
2022/01/04 06:29:24;;;;;;;30.02;17.42;;;;;;;4.19;100.00;99712.53;6689675;26;33722;-82
2022/01/04 06:32:27;;;;;;;28.20;16.58;;;;;;;4.14;100.00;99705.97;6689055;26;33990;-82
2022/01/04 06:35:33;;;;;;;28.45;16.25;;;;;;;4.17;100.00;99698.50;6689080;26;35091;-82
2022/01/04 06:38:37;;;;;;;29.75;17.00;;;;;;;4.13;100.00;99697.16;6689063;26;34014;-82
2022/01/04 06:41:40;;;;;;;27.95;17.15;;;;;;;4.02;100.00;99684.91;6687970;26;34625;-82
2022/01/04 06:44:43;;;;;;;31.95;16.62;;;;;;;4.03;100.00;99681.22;6689030;26;33910;-81
2022/01/04 06:47:46;;;;;;;28.05;15.77;;;;;;;4.00;100.00;99678.88;6688883;26;33903;-82
2022/01/04 06:50:48;;;;;;;28.75;16.77;;;;;;;4.14;100.00;99672.19;6689446;26;34889;-81
2022/01/04 06:53:51;;;;;;;26.80;16.50;;;;;;;4.14;100.00;99660.69;6689071;26;34733;-81
2022/01/04 06:56:54;;;;;;;28.00;15.27;;;;;;;4.13;100.00;99649.22;6689146;26;34694;-82
2022/01/04 06:59:57;;;;;;;29.63;16.75;;;;;;;4.04;100.00;99650.97;6688528;26;34825;-82
2022/01/04 07:02:59;;;;;;;28.50;17.02;;;;;;;4.05;100.00;99646.47;6688559;26;33811;-82
2022/01/04 07:06:02;;;;;;;28.45;16.75;;;;;;;4.11;100.00;99643.19;6689071;26;34676;-82
2022/01/04 07:09:07;;;;;;;32.28;15.90;;;;;;;4.16;100.00;99640.91;6689908;26;33938;-82
2022/01/04 07:12:10;;;;;;;28.55;15.82;;;;;;;4.26;100.00;99635.47;6688316;26;33991;-82
2022/01/04 07:15:12;;;;;;;32.35;17.58;;;;;;;4.45;100.00;99650.44;6688638;26;33563;-82
2022/01/04 07:18:15;;;;;;;28.08;16.20;;;;;;;4.62;100.00;99676.22;6691772;26;33705;-81
2022/01/04 07:21:19;;;;;;;28.58;15.55;;;;;;;4.84;100.00;99679.34;6689090;26;35024;-82
2022/01/04 07:24:23;;;;;;;26.65;16.35;;;;;;;5.04;100.00;99683.44;6688363;26;33891;-81
2022/01/04 07:27:25;;;;;;;25.45;15.57;;;;;;;5.13;100.00;99689.66;6688841;26;34054;-81
2022/01/04 07:30:28;;;;;;;27.30;14.52;;;;;;;5.29;100.00;99668.34;6688336;26;34074;-82
2022/01/04 07:33:31;;;;;;;23.80;14.05;;;;;;;5.44;100.00;99668.56;6688614;26;33794;-82
2022/01/04 07:36:34;;;;;;;19.55;12.35;;;;;;;5.52;100.00;99667.78;6689006;26;34455;-82
2022/01/04 07:39:37;;;;;;;17.67;11.40;;;;;;;5.61;100.00;99667.63;6689318;26;33964;-81
2022/01/04 07:42:40;;;;;;;18.87;10.60;;;;;;;5.93;100.00;99662.50;6689564;26;33717;-81
2022/01/04 07:45:43;;;;;;;18.40;10.00;;;;;;;6.17;100.00;99656.38;6689841;26;33917;-81
2022/01/04 07:48:49;;;;;;;18.27;10.32;;;;;;;6.36;100.00;99648.00;6689674;26;33963;-81
2022/01/04 07:51:52;;;;;;;17.30;9.73;;;;;;;6.54;98.82;99637.97;6689628;26;34416;-81
2022/01/04 07:54:55;;;;;;;16.08;9.75;;;;;;;6.86;97.24;99641.56;6689912;26;34803;-81
2022/01/04 07:57:58;;;;;;;17.05;10.32;;;;;;;6.99;95.64;99627.63;6690694;26;34077;-81
2022/01/04 08:01:01;;;;;;;15.00;9.00;;;;;;;7.04;95.67;99622.59;6690404;26;34480;-81
2022/01/04 08:04:04;;;;;;;16.15;8.65;;;;;;;7.25;93.75;99622.00;6689568;26;35291;-82
2022/01/04 08:07:07;;;;;;;15.65;9.50;;;;;;;7.31;92.62;99613.25;6692765;26;33840;-83
2022/01/04 08:10:10;;;;;;;15.60;9.40;;;;;;;7.47;92.57;99599.78;6689914;26;34029;-82
2022/01/04 08:13:14;;;;;;;13.98;7.80;;;;;;;7.61;91.35;99598.19;6689445;26;34989;-82
2022/01/04 08:16:17;;;;;;;12.02;8.35;;;;;;;7.89;89.93;99589.59;6690434;26;33820;-84
2022/01/04 08:19:20;;;;;;;13.70;8.02;;;;;;;8.12;88.11;99573.50;6695170;26;34245;-83
2022/01/04 08:22:23;;;;;;;12.35;8.15;;;;;;;8.14;87.37;99564.25;6697006;26;34552;-82
2022/01/04 08:25:26;;;;;;;13.10;8.27;;;;;;;8.17;87.71;99573.81;6701596;26;34297;-82
2022/01/04 08:28:29;;;;;;;11.88;7.80;;;;;;;8.20;87.25;99560.03;6700319;26;34516;-84
2022/01/04 08:31:32;;;;;;;20.02;11.43;;;;;;;8.29;86.04;99550.06;6697631;26;35237;-83
2022/01/04 08:34:35;;;;;;;14.30;8.70;;;;;;;8.30;85.90;99551.72;6691298;26;34054;-83
2022/01/04 08:37:39;;;;;;;14.35;8.65;;;;;;;8.27;85.64;99550.22;6689767;26;33880;-84
2022/01/04 08:40:42;;;;;;;12.00;7.70;;;;;;;8.15;86.88;99546.31;6692678;26;34087;-81
2022/01/04 08:43:45;;;;;;;13.00;7.40;;;;;;;8.35;85.46;99541.28;6689997;26;34001;-80
2022/01/04 08:46:49;;;;;;;12.68;7.10;;;;;;;8.35;85.10;99552.81;6689610;26;33965;-80
2022/01/04 08:49:52;;;;;;;13.95;7.80;;;;;;;8.34;85.08;99569.94;6689383;26;34614;-80
2022/01/04 08:52:55;;;;;;;11.88;7.30;;;;;;;8.23;86.11;99562.34;6689683;26;33952;-80
2022/01/04 08:56:01;;;;;;;10.90;7.35;;;;;;;8.24;85.21;99545.22;6689267;26;34415;-80
2022/01/04 08:59:07;;;;;;;12.25;7.80;;;;;;;8.22;85.71;99558.00;6689547;26;34135;-80
2022/01/04 09:02:10;;;;;;;11.93;7.03;;;;;;;8.32;84.80;99552.37;6689145;26;34760;-80
2022/01/04 09:05:14;;;;;;;11.75;7.40;;;;;;;8.18;85.58;99544.09;6692523;26;33690;-80
2022/01/04 09:08:16;;;;;;;10.52;7.45;;;;;;;8.06;86.45;99524.12;6690915;26;34390;-80
2022/01/04 09:11:21;;;;;;;15.10;9.23;;;;;;;8.06;87.36;99532.16;6692122;26;34700;-80
2022/01/04 09:14:28;;;;;;;10.55;7.43;;;;;;;7.99;87.11;99531.25;6700289;26;34162;-80
2022/01/04 09:20:54;;;;;;;12.02;7.60;;;;;;;7.90;87.79;99521.63;6689703;26;34010;-80
2022/01/04 09:23:59;;;;;;;12.68;7.68;;;;;;;7.89;88.09;99526.13;6690178;26;33564;-80
2022/01/04 09:27:05;;;;;;;10.98;7.15;;;;;;;7.97;88.26;99543.97;6689962;26;34641;-80
2022/01/04 09:30:08;;;;;;;13.13;7.87;;;;;;;8.09;87.46;99525.62;6691848;26;34501;-80
2022/01/04 09:33:14;;;;;;;12.25;6.40;;;;;;;8.18;87.40;99505.75;6690078;26;33740;-79
2022/01/04 09:36:17;;;;;;;11.43;7.43;;;;;;;8.21;86.41;99500.00;6690413;26;35120;-81
2022/01/04 09:39:23;;;;;;;12.07;7.87;;;;;;;8.22;86.76;99508.88;6690398;26;33642;-80
2022/01/04 09:42:26;;;;;;;12.95;7.37;;;;;;;8.36;86.65;99487.44;6690571;26;33936;-80
2022/01/04 09:45:29;;;;;;;11.85;7.12;;;;;;;8.53;85.19;99485.41;6692233;26;34149;-80
2022/01/04 09:48:33;;;;;;;12.32;7.05;;;;;;;8.67;84.43;99482.91;6691562;26;33573;-80
2022/01/04 09:51:38;;;;;;;11.12;7.40;;;;;;;8.56;85.19;99476.19;6692891;26;34007;-79
2022/01/04 09:54:41;;;;;;;15.30;7.65;;;;;;;8.73;84.73;99466.06;6692639;26;33615;-80
2022/01/04 09:57:47;;;;;;;15.80;7.82;;;;;;;8.81;83.96;99456.06;6691351;26;33978;-80
2022/01/04 10:00:51;;;;;;;17.65;7.95;;;;;;;8.90;83.34;99442.53;6692620;26;34099;-80
2022/01/04 10:03:54;;;;;;;15.80;8.50;;;;;;;9.02;83.21;99425.72;6691015;26;33975;-80
2022/01/04 10:06:57;;;;;;;11.70;8.00;;;;;;;8.90;83.68;99415.69;6692269;26;32777;-80
2022/01/04 10:10:02;;;;;;;12.88;8.55;;;;;;;9.07;83.01;99404.50;6691261;26;33892;-81
2022/01/04 10:13:11;;;;;;;12.27;8.15;;;;;;;9.17;82.38;99406.84;6690891;26;34218;-83
2022/01/04 10:16:17;;;;;;;16.00;9.07;;;;;;;9.12;82.59;99403.09;6690897;26;33951;-84
2022/01/04 10:19:34;;;;;;;16.85;8.73;;;;;;;9.05;83.69;99382.38;6691055;26;33726;-80
2022/01/04 10:22:44;;;;;;;16.58;10.23;;;;;;;9.12;83.87;99395.03;6695323;26;33999;-80
2022/01/04 10:26:00;;;;;;;15.70;9.40;;;;;;;9.21;82.66;99401.91;6702004;26;34945;-80
2022/01/04 10:29:20;;;;;;;15.10;8.60;;;;;;;9.14;83.42;99412.59;6711193;26;34469;-81
2022/01/04 10:32:23;;;;;;;14.50;9.60;;;;;;;9.36;82.88;99405.38;6712257;26;35479;-80
2022/01/04 10:35:37;;;;;;;19.17;10.27;;;;;;;9.30;82.13;99401.63;6707074;26;35361;-80
2022/01/04 10:38:44;;;;;;;17.12;9.80;;;;;;;9.27;83.23;99395.78;6690875;26;35181;-80
2022/01/04 10:42:03;;;;;;;17.50;9.35;;;;;;;9.42;82.28;99387.62;6689402;26;33991;-81
2022/01/04 10:45:30;;;;;;;14.38;8.95;;;;;;;9.49;82.96;99375.91;6689539;26;33609;-81
2022/01/04 10:48:36;;;;;;;14.73;9.07;;;;;;;9.62;81.55;99363.59;6688557;26;34000;-80
2022/01/04 10:51:38;;;;;;;16.12;9.20;;;;;;;9.66;81.65;99368.41;6689386;26;33836;-81
2022/01/04 10:54:41;;;;;;;21.05;12.65;;;;;;;9.69;81.53;99359.94;6689027;26;33931;-81
2022/01/04 10:57:44;;;;;;;22.83;11.73;;;;;;;9.69;81.71;99362.63;6688641;26;33437;-81
2022/01/04 11:00:53;;;;;;;15.32;9.52;;;;;;;9.59;82.35;99355.94;6688389;26;33880;-81
2022/01/04 11:03:59;;;;;;;14.70;9.52;;;;;;;9.59;83.16;99345.19;6690324;26;33920;-82
2022/01/04 11:07:02;;;;;;;15.20;9.68;;;;;;;9.86;81.74;99338.13;6687812;26;34701;-78
2022/01/04 11:10:05;;;;;;;16.33;9.40;;;;;;;9.87;82.41;99320.97;6687723;26;34828;-79
2022/01/04 11:13:09;;;;;;;18.98;9.70;;;;;;;9.84;82.04;99329.44;6687843;26;34912;-79
2022/01/04 11:16:11;;;;;;;12.77;8.27;;;;;;;9.76;82.80;99328.53;6687934;26;33977;-79
2022/01/04 11:19:18;;;;;;;30.08;21.80;;;;;;;9.65;83.74;99314.84;6688339;26;34806;-79
2022/01/04 11:22:21;;;;;;;16.33;10.27;;;;;;;9.55;84.59;99309.81;6688298;26;33704;-80
2022/01/04 11:25:24;;;;;;;13.77;7.68;;;;;;;9.59;85.13;99308.37;6688422;26;33634;-79
2022/01/04 11:28:27;;;;;;;12.45;7.07;;;;;;;9.81;83.91;99286.81;6688366;26;34706;-80
2022/01/04 11:31:58;;;;;;;11.45;6.40;;;;;;;9.90;84.02;99283.75;6687882;26;33667;-80
2022/01/04 11:35:16;;;;;;;7.93;5.90;;;;;;;9.86;83.85;99274.44;6688323;26;34343;-80
2022/01/04 11:38:37;;;;;;;9.35;5.82;;;;;;;9.94;84.16;99266.16;6688144;26;34423;-80
2022/01/04 11:41:42;;;;;;;8.50;5.93;;;;;;;9.94;84.11;99268.03;6687754;26;34115;-80
2022/01/04 11:44:47;;;;;;;8.38;5.47;;;;;;;10.02;84.12;99267.88;6691404;26;34125;-80
2022/01/04 11:47:50;;;;;;;11.00;5.45;;;;;;;10.02;84.29;99253.59;6691946;26;33879;-80
2022/01/04 11:50:55;;;;;;;7.28;5.60;;;;;;;10.11;84.20;99245.13;6695661;26;34267;-80
2022/01/04 11:54:21;;;;;;;9.48;5.72;;;;;;;10.14;83.88;99249.28;6705845;26;34062;-80
2022/01/04 11:57:24;;;;;;;7.65;5.07;;;;;;;10.12;84.49;99257.56;6693986;26;35057;-80
2022/01/04 12:00:34;;;;;;;7.30;5.15;;;;;;;10.15;84.07;99235.66;6687998;26;34694;-80
2022/01/04 12:03:42;;;;;;;7.75;5.07;;;;;;;10.09;84.75;99249.91;6689783;26;34006;-80
2022/01/04 12:06:45;;;;;;;6.05;4.93;;;;;;;10.15;84.25;99248.25;6688489;26;34146;-84
2022/01/04 12:09:48;;;;;;;6.95;5.00;;;;;;;10.16;84.08;99236.47;6687690;26;34901;-84
2022/01/04 12:13:06;;;;;;;8.07;5.32;;;;;;;10.23;83.54;99253.44;6688443;26;34385;-84
2022/01/04 12:16:09;;;;;;;7.15;4.90;;;;;;;10.14;83.66;99239.34;6686092;26;34223;-80
2022/01/04 12:19:15;;;;;;;8.35;4.90;;;;;;;10.21;83.94;99239.37;6687791;26;33922;-81
2022/01/04 12:22:33;;;;;;;10.35;5.97;;;;;;;10.28;83.51;99244.81;6687646;26;34404;-80
2022/01/04 12:25:37;;;;;;;7.62;5.53;;;;;;;10.30;83.52;99235.50;6688150;26;34295;-80
2022/01/04 12:28:59;;;;;;;10.07;5.80;;;;;;;10.32;83.41;99237.97;6691518;26;34465;-80
2022/01/04 12:32:04;;;;;;;15.40;7.35;;;;;;;10.31;83.53;99241.72;6688218;26;34514;-80
2022/01/04 12:35:08;;;;;;;7.07;5.43;;;;;;;10.37;83.73;99232.81;6689895;26;33907;-80
2022/01/04 12:38:10;;;;;;;10.85;5.70;;;;;;;10.35;83.33;99227.62;6689104;26;34531;-81
2022/01/04 12:41:15;;;;;;;9.40;5.20;;;;;;;10.36;83.21;99215.03;6689196;26;33938;-81
2022/01/04 12:44:23;;;;;;;11.15;6.45;;;;;;;10.27;84.18;99217.09;6689860;26;33764;-81
2022/01/04 12:47:27;;;;;;;10.25;5.80;;;;;;;10.32;83.80;99197.62;6689490;26;33710;-81
2022/01/04 12:50:30;;;;;;;8.20;5.10;;;;;;;10.32;83.85;99206.50;6689489;26;33803;-81
2022/01/04 12:53:36;;;;;;;11.55;5.50;;;;;;;10.47;83.16;99203.66;6689145;26;34133;-80
2022/01/04 12:56:48;;;;;;;8.38;5.50;;;;;;;10.43;83.01;99205.09;6689352;26;35157;-81
2022/01/04 12:59:56;;;;;;;8.50;5.37;;;;;;;10.60;82.24;99208.22;6688932;26;34858;-81
2022/01/04 13:02:58;;;;;;;6.97;4.87;;;;;;;10.76;81.69;99185.41;6688858;26;33891;-81
2022/01/04 13:06:04;;;;;;;9.82;5.80;;;;;;;10.99;80.47;99163.44;6688681;26;33954;-81
2022/01/04 13:09:07;;;;;;;7.57;5.25;;;;;;;11.03;80.12;99151.22;6689208;26;34664;-81
2022/01/04 13:12:10;;;;;;;8.00;5.32;;;;;;;11.06;79.77;99140.84;6689920;26;33365;-80
2022/01/04 13:15:19;;;;;;;7.80;5.22;;;;;;;10.90;80.48;99157.44;6689754;26;34999;-81
2022/01/04 13:18:27;;;;;;;7.65;5.28;;;;;;;10.76;80.97;99145.84;6690811;26;35450;-80
2022/01/04 13:21:31;;;;;;;10.88;5.50;;;;;;;10.71;81.62;99128.72;6691248;26;34325;-85
2022/01/04 13:24:55;;;;;;;9.65;5.68;;;;;;;10.69;81.64;99120.81;6670486;26;34607;-85
2022/01/04 13:28:03;;;;;;;8.45;5.50;;;;;;;10.68;81.65;99129.94;6689333;26;34601;-80
2022/01/04 13:31:06;;;;;;;12.55;5.55;;;;;;;10.72;81.78;99131.19;6688997;26;34137;-81
2022/01/04 13:34:09;;;;;;;10.98;5.45;;;;;;;10.67;81.94;99139.87;6689168;26;33429;-80
2022/01/04 13:37:12;;;;;;;11.43;6.07;;;;;;;10.69;82.21;99139.66;6690570;26;34550;-80
2022/01/04 13:40:15;;;;;;;10.48;5.80;;;;;;;10.84;81.24;99137.56;6692376;26;34755;-81
2022/01/04 13:43:27;;;;;;;9.52;5.72;;;;;;;10.86;80.89;99127.44;6690419;26;33960;-81
2022/01/04 13:46:31;;;;;;;10.30;6.05;;;;;;;10.87;81.04;99131.75;6689738;26;34408;-81
2022/01/04 13:49:34;;;;;;;10.55;5.87;;;;;;;10.81;81.25;99121.84;6690181;26;33862;-81
2022/01/04 13:52:38;;;;;;;9.27;6.12;;;;;;;10.69;82.57;99118.13;6694216;26;33925;-80
2022/01/04 13:55:50;;;;;;;16.02;11.20;;;;;;;10.76;82.17;99137.78;6692342;26;33724;-81
2022/01/04 13:58:54;;;;;;;8.77;5.82;;;;;;;10.79;82.05;99125.78;6693961;26;34026;-81
2022/01/04 14:01:57;;;;;;;8.95;5.20;;;;;;;10.82;81.52;99130.72;6705448;26;34056;-81
2022/01/04 14:05:15;;;;;;;8.80;5.45;;;;;;;10.85;81.35;99111.47;6709737;26;35282;-80
2022/01/04 14:08:18;;;;;;;9.27;5.60;;;;;;;10.78;82.05;99110.66;6691001;26;34002;-81
2022/01/04 14:11:28;;;;;;;9.00;5.95;;;;;;;10.74;82.29;99104.88;6690933;26;33985;-81
2022/01/04 14:14:41;;;;;;;8.23;5.65;;;;;;;10.73;82.70;99084.38;6690551;26;33996;-81
2022/01/04 14:17:43;;;;;;;8.63;5.53;;;;;;;10.61;83.78;99094.94;6689320;26;33885;-80
2022/01/04 14:20:55;;;;;;;8.20;5.60;;;;;;;10.62;83.46;99099.31;6689485;26;34306;-81
2022/01/04 14:23:58;;;;;;;9.75;5.25;;;;;;;10.60;84.35;99093.31;6690868;26;34674;-81
2022/01/04 14:27:27;;;;;;;8.88;5.85;;;;;;;10.62;84.15;99093.94;6692864;26;33928;-81
2022/01/04 14:30:34;;;;;;;9.13;5.97;;;;;;;10.57;84.40;99091.03;6698008;26;34846;-83
2022/01/04 14:33:37;;;;;;;11.00;5.90;;;;;;;10.60;83.61;99085.22;6700326;26;34827;-81
2022/01/04 14:36:40;;;;;;;13.25;5.57;;;;;;;10.62;83.64;99083.16;6690914;26;34356;-81
2022/01/04 14:39:43;;;;;;;9.65;5.53;;;;;;;10.60;83.42;99073.66;6689957;26;34552;-81
2022/01/04 14:42:46;;;;;;;7.97;5.55;;;;;;;10.58;84.14;99064.94;6690092;26;34032;-80
2022/01/04 14:45:48;;;;;;;9.15;5.30;;;;;;;10.58;83.45;99057.69;6688762;26;33647;-80
2022/01/04 14:48:51;;;;;;;9.25;5.70;;;;;;;10.60;82.91;99044.03;6700785;26;34032;-81
2022/01/04 14:51:54;;;;;;;12.27;5.45;;;;;;;10.64;82.52;99047.94;6699743;26;35337;-80
2022/01/04 14:54:57;;;;;;;10.38;5.22;;;;;;;10.66;82.29;99064.72;6705517;26;35226;-81
2022/01/04 14:57:59;;;;;;;8.88;5.28;;;;;;;10.63;81.86;99074.03;6690235;26;34870;-81
2022/01/04 15:01:02;;;;;;;11.30;5.20;;;;;;;10.69;81.98;99074.25;6690759;26;34031;-81
2022/01/04 15:04:10;;;;;;;11.15;5.55;;;;;;;10.69;81.64;99074.25;6689148;26;34404;-81
2022/01/04 15:07:13;;;;;;;8.15;5.05;;;;;;;10.76;81.53;99080.44;6689641;26;34590;-80
2022/01/04 15:10:16;;;;;;;5.87;4.68;;;;;;;10.80;81.10;99108.59;6690578;26;33576;-81
2022/01/04 15:13:19;;;;;;;9.43;4.93;;;;;;;10.79;80.69;99113.16;6690984;26;33905;-81
2022/01/04 15:16:22;;;;;;;9.25;4.82;;;;;;;10.86;80.46;99102.37;6690149;26;33827;-81
2022/01/04 15:19:25;;;;;;;7.95;5.12;;;;;;;10.84;80.86;99104.44;6689208;26;34669;-80
2022/01/04 15:22:35;;;;;;;8.70;5.35;;;;;;;10.81;81.38;99115.63;6689976;26;33655;-81
2022/01/04 15:25:38;;;;;;;8.52;5.68;;;;;;;10.78;81.08;99098.03;6689257;26;34077;-80
2022/01/04 15:28:41;;;;;;;8.93;4.87;;;;;;;10.85;80.65;99088.09;6689231;26;34026;-80
2022/01/04 15:31:44;;;;;;;9.80;5.40;;;;;;;10.85;80.63;99082.69;6689114;26;35009;-80
2022/01/04 15:34:47;;;;;;;8.65;4.87;;;;;;;10.90;80.35;99055.94;6689002;26;34800;-80
2022/01/04 15:37:51;;;;;;;7.82;4.28;;;;;;;10.90;80.23;99052.44;6688964;26;34455;-82
2022/01/04 15:40:53;;;;;;;8.07;4.65;;;;;;;10.83;80.72;99047.06;6688785;26;34641;-82
2022/01/04 15:43:57;;;;;;;6.68;4.68;;;;;;;10.84;80.55;99037.94;6689431;26;33665;-82
2022/01/04 15:47:01;;;;;;;7.68;4.78;;;;;;;10.85;80.30;99019.94;6689397;26;33961;-81
2022/01/04 15:50:08;;;;;;;7.60;4.93;;;;;;;10.86;79.94;99014.34;6689076;26;33662;-82
2022/01/04 15:53:11;;;;;;;7.68;5.15;;;;;;;10.83;80.65;99005.88;6688872;26;33762;-82
2022/01/04 15:56:14;;;;;;;9.05;4.62;;;;;;;10.83;80.45;98998.62;6693307;26;35337;-82
2022/01/04 15:59:16;;;;;;;6.03;4.53;;;;;;;10.85;80.21;98993.00;6694237;26;34351;-82
2022/01/04 16:02:22;;;;;;;7.95;4.35;;;;;;;10.78;80.90;99008.38;6688931;26;34751;-82
2022/01/04 16:05:26;;;;;;;8.98;5.22;;;;;;;10.72;81.34;99006.53;6688543;26;34763;-82
2022/01/04 16:08:29;;;;;;;10.50;5.18;;;;;;;10.62;81.83;99002.44;6689857;26;34951;-82
2022/01/04 16:11:32;;;;;;;7.75;5.37;;;;;;;10.63;82.19;99004.06;6694110;26;34767;-81
2022/01/04 16:14:34;;;;;;;8.98;5.40;;;;;;;10.63;81.99;99001.38;6690636;26;33961;-82
2022/01/04 16:24:04;;;;;;;9.98;4.80;;;;;;;10.53;83.16;98992.94;6692309;26;34108;-82
2022/01/04 16:27:12;;;;;;;10.10;4.90;;;;;;;10.46;83.77;98997.50;6692973;26;34063;-81
2022/01/04 16:30:15;;;;;;;9.35;5.05;;;;;;;10.51;83.44;99004.94;6689569;26;33977;-81
2022/01/04 16:33:17;;;;;;;8.35;4.68;;;;;;;10.44;83.96;98994.19;6689622;26;34357;-81
2022/01/04 16:36:29;;;;;;;7.10;4.55;;;;;;;10.39;84.30;98994.00;6689437;26;34904;-81
2022/01/04 16:39:31;;;;;;;9.77;4.45;;;;;;;10.36;84.60;99005.19;6689517;26;34838;-81
2022/01/04 16:42:35;;;;;;;8.10;4.78;;;;;;;10.38;84.13;99009.31;6689667;26;34796;-81
2022/01/04 16:45:38;;;;;;;8.73;4.87;;;;;;;10.46;83.82;99007.44;6689644;26;33622;-81
2022/01/04 16:48:41;;;;;;;7.20;4.65;;;;;;;10.49;83.72;99010.53;6689602;26;34779;-81
